Time;durP1;ratioP1;P1;durP2;ratioP2;P2;SDS_P1;SDS_P2;PMS_P1;PMS_P2;Temp;Humidity;BMP_temperature;BMP_pressure;BME280_temperature;BME280_humidity;BME280_pressure;Samples;Min_cycle;Max_cycle;Signal;HPM_P1;HPM_P2
2023/08/11 00:00:37;;;;;;;0.50;0.50;;;10.40;99.90;;;;;;5092251;28;20668;-69
2023/08/11 00:03:06;;;;;;;0.70;0.70;;;10.40;99.90;;;;;;5092167;28;20204;-69
2023/08/11 00:05:38;;;;;;;0.60;0.60;;;10.40;99.90;;;;;;5091155;28;20303;-69
2023/08/11 00:08:05;;;;;;;0.55;0.55;;;10.40;99.90;;;;;;5090633;28;20198;-69
2023/08/11 00:10:33;;;;;;;0.50;0.50;;;10.40;99.90;;;;;;5092194;28;20658;-68
2023/08/11 00:13:00;;;;;;;0.50;0.50;;;10.30;99.90;;;;;;5074332;28;20192;-69
2023/08/11 00:15:28;;;;;;;0.50;0.50;;;10.30;99.90;;;;;;5091971;28;20200;-69
2023/08/11 00:18:02;;;;;;;0.60;0.60;;;10.30;99.90;;;;;;5091918;28;20736;-69
2023/08/11 00:20:28;;;;;;;0.40;0.40;;;10.40;99.90;;;;;;5092042;28;20570;-69
2023/08/11 00:22:54;;;;;;;0.60;0.60;;;10.40;99.90;;;;;;5091890;28;20709;-69
2023/08/11 00:25:21;;;;;;;0.70;0.70;;;10.40;99.90;;;;;;5091792;28;20274;-69
2023/08/11 00:27:48;;;;;;;0.50;0.50;;;10.40;99.90;;;;;;5091668;28;20746;-68
2023/08/11 00:30:16;;;;;;;0.70;0.70;;;10.50;99.90;;;;;;5064554;28;20664;-68
2023/08/11 00:32:41;;;;;;;0.60;0.60;;;10.50;99.90;;;;;;5070736;28;20694;-66
2023/08/11 00:35:08;;;;;;;0.57;0.57;;;10.60;99.90;;;;;;5083733;28;20196;-68
2023/08/11 00:37:34;;;;;;;0.63;0.63;;;10.70;99.90;;;;;;5095208;28;20196;-68
2023/08/11 00:40:00;;;;;;;0.60;0.60;;;10.70;99.90;;;;;;5095863;28;20211;-67
2023/08/11 00:42:25;;;;;;;0.50;0.50;;;10.70;99.90;;;;;;5095952;28;20192;-68
2023/08/11 00:44:51;;;;;;;0.63;0.63;;;10.70;99.90;;;;;;5096024;28;20275;-67
2023/08/11 00:47:18;;;;;;;0.55;0.55;;;10.80;99.90;;;;;;5095641;28;20723;-68
2023/08/11 00:49:44;;;;;;;0.50;0.50;;;10.80;99.90;;;;;;5096180;28;20196;-67
2023/08/11 00:52:13;;;;;;;0.50;0.50;;;10.80;99.90;;;;;;5096074;28;20187;-68
2023/08/11 00:54:41;;;;;;;0.65;0.65;;;10.80;99.90;;;;;;5095542;28;20220;-67
2023/08/11 00:57:10;;;;;;;0.50;0.50;;;10.80;99.90;;;;;;5094511;28;20203;-67
2023/08/11 00:59:38;;;;;;;0.60;0.60;;;10.80;99.90;;;;;;5095687;28;20188;-68
2023/08/11 01:02:05;;;;;;;0.50;0.50;;;10.80;99.90;;;;;;5095991;28;20593;-69
2023/08/11 01:04:34;;;;;;;0.50;0.50;;;10.80;99.90;;;;;;5108496;22;20239;-74
2023/08/11 01:07:14;;;;;;;0.60;0.60;;;10.80;99.90;;;;;;5056815;28;20303;-74
2023/08/11 01:09:58;;;;;;;0.50;0.50;;;10.90;99.90;;;;;;5074029;28;20197;-74
2023/08/11 01:12:41;;;;;;;0.60;0.60;;;10.80;99.90;;;;;;5074761;28;20580;-73
2023/08/11 01:15:19;;;;;;;0.60;0.60;;;10.90;99.90;;;;;;5057834;28;20250;-74
2023/08/11 01:17:48;;;;;;;0.50;0.50;;;10.90;99.90;;;;;;5075863;28;20188;-74
2023/08/11 01:20:16;;;;;;;0.70;0.70;;;11.00;99.90;;;;;;5075738;28;20287;-74
2023/08/11 01:22:45;;;;;;;0.52;0.52;;;11.00;99.90;;;;;;5075302;28;20242;-74
2023/08/11 01:25:11;;;;;;;0.73;0.73;;;11.00;99.90;;;;;;5075644;28;20242;-74
2023/08/11 01:27:47;;;;;;;0.50;0.50;;;11.00;99.90;;;;;;5057513;28;20537;-72
2023/08/11 01:30:13;;;;;;;0.50;0.50;;;11.00;99.90;;;;;;5075229;28;20184;-72
2023/08/11 01:32:39;;;;;;;0.50;0.50;;;11.00;99.90;;;;;;5075187;28;20199;-72
2023/08/11 01:35:06;;;;;;;0.50;0.50;;;11.10;99.90;;;;;;5075035;28;20193;-72
2023/08/11 01:37:32;;;;;;;0.50;0.50;;;11.10;99.90;;;;;;5075193;28;20559;-72
2023/08/11 01:39:58;;;;;;;0.50;0.50;;;11.10;99.90;;;;;;5057564;28;20193;-72
2023/08/11 01:42:24;;;;;;;0.52;0.52;;;11.10;99.90;;;;;;5075419;28;20594;-73
2023/08/11 01:44:51;;;;;;;0.50;0.50;;;11.10;99.90;;;;;;5075490;28;20203;-73
2023/08/11 01:47:18;;;;;;;0.50;0.50;;;11.10;99.90;;;;;;5074784;28;20606;-73
2023/08/11 01:49:45;;;;;;;0.52;0.52;;;11.10;99.90;;;;;;5074902;28;20238;-72
2023/08/11 01:52:11;;;;;;;0.77;0.70;;;11.10;99.90;;;;;;5074948;28;20216;-72
2023/08/11 01:54:37;;;;;;;0.60;0.60;;;11.10;99.90;;;;;;5075290;28;20189;-73
2023/08/11 01:57:04;;;;;;;0.60;0.60;;;11.20;99.90;;;;;;5075003;28;20197;-73
2023/08/11 01:59:30;;;;;;;0.50;0.50;;;11.20;99.90;;;;;;5075031;28;20196;-72
2023/08/11 02:01:56;;;;;;;0.50;0.50;;;11.20;99.90;;;;;;5075641;28;20193;-70
2023/08/11 02:04:22;;;;;;;0.50;0.50;;;11.30;99.90;;;;;;5074867;28;20232;-71
2023/08/11 02:06:49;;;;;;;1.10;1.08;;;11.30;99.90;;;;;;5072611;28;20244;-70
2023/08/11 02:09:15;;;;;;;0.40;0.40;;;11.30;99.90;;;;;;5073965;28;20181;-69
2023/08/11 02:11:41;;;;;;;0.50;0.50;;;11.30;99.90;;;;;;5073916;28;20921;-73
2023/08/11 02:14:08;;;;;;;0.50;0.50;;;11.30;99.90;;;;;;5056105;28;20193;-72
2023/08/11 02:16:36;;;;;;;0.52;0.52;;;11.40;99.90;;;;;;5074396;28;20276;-68
2023/08/11 02:19:02;;;;;;;0.80;0.80;;;11.40;99.90;;;;;;5074932;28;20188;-72
2023/08/11 02:21:28;;;;;;;0.40;0.40;;;11.40;99.90;;;;;;5074437;28;20713;-73
2023/08/11 02:23:54;;;;;;;0.47;0.47;;;11.40;99.90;;;;;;5056842;28;20209;-73
2023/08/11 02:26:22;;;;;;;0.47;0.47;;;11.40;99.90;;;;;;5074423;28;20215;-73
2023/08/11 02:28:48;;;;;;;0.50;0.50;;;11.50;99.90;;;;;;5075091;28;20212;-73
2023/08/11 02:31:13;;;;;;;0.50;0.50;;;11.40;99.90;;;;;;5073960;28;20220;-72
2023/08/11 02:33:40;;;;;;;0.50;0.50;;;11.40;99.90;;;;;;5074142;28;20325;-72
2023/08/11 02:36:06;;;;;;;0.50;0.50;;;11.40;99.90;;;;;;5054431;28;20192;-72
2023/08/11 02:38:33;;;;;;;0.52;0.52;;;11.40;99.90;;;;;;5052716;28;20587;-72
2023/08/11 02:40:59;;;;;;;0.50;0.50;;;11.40;99.90;;;;;;5071399;28;20691;-73
2023/08/11 02:43:24;;;;;;;0.50;0.50;;;11.40;99.90;;;;;;5056004;28;20287;-72
2023/08/11 02:45:50;;;;;;;0.60;0.60;;;11.40;99.90;;;;;;5072176;28;20212;-72
2023/08/11 02:48:16;;;;;;;0.45;0.45;;;11.40;99.90;;;;;;5073713;28;20532;-72
2023/08/11 02:50:43;;;;;;;0.50;0.50;;;11.40;99.90;;;;;;5073506;28;20189;-72
2023/08/11 02:53:09;;;;;;;0.50;0.50;;;11.40;99.90;;;;;;5073554;28;20203;-72
2023/08/11 02:55:35;;;;;;;0.50;0.50;;;11.40;99.90;;;;;;5073441;28;20184;-72
2023/08/11 02:58:01;;;;;;;0.50;0.50;;;11.40;99.90;;;;;;5073532;28;20280;-72
2023/08/11 03:00:29;;;;;;;0.50;0.50;;;11.40;99.90;;;;;;5073334;28;20189;-72
2023/08/11 03:02:56;;;;;;;0.50;0.50;;;11.40;99.90;;;;;;5054272;28;20268;-72
2023/08/11 03:05:22;;;;;;;0.63;0.63;;;11.40;99.90;;;;;;5071166;28;20282;-72
2023/08/11 03:07:48;;;;;;;6.90;1.95;;;11.40;99.90;;;;;;5073127;28;20192;-72
2023/08/11 03:10:14;;;;;;;0.60;0.60;;;11.40;99.90;;;;;;5073014;28;20604;-72
2023/08/11 03:12:40;;;;;;;0.50;0.50;;;11.40;99.90;;;;;;5052466;28;20256;-72
2023/08/11 03:15:06;;;;;;;0.50;0.50;;;11.40;99.90;;;;;;5053088;28;20185;-71
2023/08/11 03:17:33;;;;;;;0.50;0.50;;;11.40;99.90;;;;;;5063693;28;20543;-72
2023/08/11 03:19:59;;;;;;;0.50;0.50;;;11.50;99.90;;;;;;5073371;28;20189;-72
2023/08/11 03:22:25;;;;;;;0.43;0.43;;;11.50;99.90;;;;;;5073390;28;20275;-72
2023/08/11 03:24:51;;;;;;;0.50;0.50;;;11.50;99.90;;;;;;5073111;28;20239;-72
2023/08/11 03:27:18;;;;;;;0.50;0.50;;;11.50;99.90;;;;;;5055397;28;20230;-72
2023/08/11 03:29:44;;;;;;;0.50;0.50;;;11.50;99.90;;;;;;5074192;28;20227;-72
2023/08/11 03:32:10;;;;;;;0.50;0.50;;;11.40;99.90;;;;;;5073649;28;20181;-71
2023/08/11 03:34:37;;;;;;;0.43;0.43;;;11.40;99.90;;;;;;5073060;28;20184;-71
2023/08/11 03:37:03;;;;;;;0.60;0.60;;;11.40;99.90;;;;;;5056800;28;20264;-71
2023/08/11 03:39:29;;;;;;;0.47;0.47;;;11.50;99.90;;;;;;5051637;28;20205;-71
2023/08/11 03:41:54;;;;;;;0.40;0.40;;;11.40;99.90;;;;;;5052932;28;20202;-72
2023/08/11 03:44:20;;;;;;;0.47;0.47;;;11.50;99.90;;;;;;5034840;28;20203;-71
2023/08/11 03:46:46;;;;;;;0.50;0.50;;;11.50;99.90;;;;;;5051747;28;20224;-72
2023/08/11 03:49:13;;;;;;;0.50;0.50;;;11.50;99.90;;;;;;5056914;28;20193;-71
2023/08/11 03:51:39;;;;;;;0.50;0.50;;;11.50;99.90;;;;;;5072536;28;20221;-71
2023/08/11 03:54:04;;;;;;;0.50;0.50;;;11.50;99.90;;;;;;5072792;28;20305;-72
2023/08/11 03:56:30;;;;;;;0.50;0.50;;;11.50;99.90;;;;;;5073076;28;20203;-72
2023/08/11 03:58:56;;;;;;;0.50;0.50;;;11.60;99.90;;;;;;5073178;28;20280;-72
2023/08/11 04:01:22;;;;;;;0.50;0.50;;;11.60;99.90;;;;;;5072862;28;20216;-72
2023/08/11 04:03:48;;;;;;;0.50;0.50;;;11.60;99.90;;;;;;5071421;28;20254;-71
2023/08/11 04:06:14;;;;;;;0.50;0.50;;;11.60;99.90;;;;;;5072822;28;20212;-72
2023/08/11 04:08:40;;;;;;;0.47;0.47;;;11.60;99.90;;;;;;5072593;28;20266;-72
2023/08/11 04:11:06;;;;;;;0.50;0.50;;;11.70;99.90;;;;;;5072248;28;20662;-71
2023/08/11 04:13:32;;;;;;;0.55;0.55;;;11.70;99.90;;;;;;5072514;28;20195;-72
2023/08/11 04:15:59;;;;;;;0.50;0.50;;;11.70;99.90;;;;;;5072807;28;20192;-72
2023/08/11 04:18:25;;;;;;;0.60;0.60;;;11.80;99.90;;;;;;5072914;28;20195;-71
2023/08/11 04:20:50;;;;;;;0.50;0.50;;;11.90;99.90;;;;;;5072761;28;20216;-70
2023/08/11 04:23:16;;;;;;;0.50;0.50;;;11.90;99.90;;;;;;5072937;28;20192;-72
2023/08/11 04:25:45;;;;;;;0.40;0.40;;;11.90;99.90;;;;;;5072809;28;20216;-72
2023/08/11 04:28:10;;;;;;;0.50;0.50;;;11.90;99.90;;;;;;5072888;28;20238;-72
2023/08/11 04:30:37;;;;;;;0.50;0.50;;;11.90;99.90;;;;;;5072653;28;20192;-72
2023/08/11 04:33:03;;;;;;;0.40;0.40;;;12.00;99.90;;;;;;5054893;28;20193;-72
2023/08/11 04:35:29;;;;;;;0.60;0.60;;;12.10;99.90;;;;;;5065565;28;20238;-72
2023/08/11 04:37:55;;;;;;;0.45;0.45;;;12.10;99.90;;;;;;5073049;28;20197;-73
2023/08/11 04:40:21;;;;;;;0.50;0.50;;;12.20;99.90;;;;;;5072913;28;20197;-72
2023/08/11 04:42:46;;;;;;;0.50;0.50;;;12.20;99.90;;;;;;5072688;28;20238;-72
2023/08/11 04:45:14;;;;;;;0.73;0.73;;;12.20;99.90;;;;;;5072518;28;20189;-72
2023/08/11 04:47:40;;;;;;;0.70;0.70;;;12.30;99.90;;;;;;5072596;28;20635;-72
2023/08/11 04:50:08;;;;;;;0.50;0.50;;;12.30;99.90;;;;;;5072619;28;20197;-72
2023/08/11 04:52:34;;;;;;;1.40;1.30;;;12.30;99.90;;;;;;5072517;28;20537;-72
2023/08/11 04:55:00;;;;;;;0.50;0.50;;;12.30;99.90;;;;;;5072594;28;20715;-73
2023/08/11 04:57:25;;;;;;;0.47;0.47;;;12.30;99.90;;;;;;5072743;28;20272;-73
2023/08/11 04:59:51;;;;;;;0.50;0.50;;;12.40;99.90;;;;;;5072487;28;20327;-72
2023/08/11 05:02:17;;;;;;;0.47;0.47;;;12.40;99.90;;;;;;5072420;28;20189;-72
2023/08/11 05:04:42;;;;;;;0.40;0.40;;;12.50;99.90;;;;;;5072004;28;20232;-72
2023/08/11 05:07:08;;;;;;;0.40;0.40;;;12.60;99.90;;;;;;5072800;28;20667;-72
2023/08/11 05:09:35;;;;;;;0.40;0.40;;;12.60;99.90;;;;;;5072228;28;20188;-72
2023/08/11 05:12:01;;;;;;;0.45;0.45;;;12.70;99.90;;;;;;5072028;28;20185;-72
2023/08/11 05:14:27;;;;;;;0.50;0.50;;;12.70;99.90;;;;;;5071429;28;20224;-72
2023/08/11 05:16:53;;;;;;;0.40;0.40;;;12.80;99.90;;;;;;5072447;28;20209;-72
2023/08/11 05:19:19;;;;;;;0.40;0.40;;;12.80;99.90;;;;;;5072271;28;20200;-72
2023/08/11 05:21:44;;;;;;;0.45;0.45;;;12.90;99.90;;;;;;5072454;28;20276;-73
2023/08/11 05:24:10;;;;;;;0.50;0.50;;;12.90;99.90;;;;;;5076152;28;20663;-72
2023/08/11 05:26:36;;;;;;;0.43;0.43;;;13.00;99.90;;;;;;5074799;28;20209;-72
2023/08/11 05:29:02;;;;;;;0.40;0.40;;;13.10;99.90;;;;;;5076169;28;20246;-72
2023/08/11 05:31:28;;;;;;;0.40;0.40;;;13.10;99.90;;;;;;5075997;28;20268;-72
2023/08/11 05:33:55;;;;;;;0.30;0.30;;;13.20;99.90;;;;;;5075840;28;20196;-73
2023/08/11 05:36:21;;;;;;;0.65;0.63;;;13.20;99.90;;;;;;5075609;28;20193;-73
2023/08/11 05:38:47;;;;;;;0.30;0.30;;;13.20;99.90;;;;;;5074467;28;20200;-73
2023/08/11 05:41:13;;;;;;;0.40;0.40;;;13.20;99.90;;;;;;5075657;28;20279;-72
2023/08/11 05:43:39;;;;;;;0.40;0.40;;;13.30;99.90;;;;;;5076156;28;20229;-73
2023/08/11 05:46:07;;;;;;;0.40;0.40;;;13.40;99.90;;;;;;5076042;28;20208;-73
2023/08/11 05:48:35;;;;;;;0.40;0.40;;;13.60;99.90;;;;;;5075729;28;20323;-69
2023/08/11 05:51:02;;;;;;;0.40;0.40;;;13.70;99.90;;;;;;5075377;28;20656;-70
2023/08/11 05:53:28;;;;;;;0.40;0.40;;;13.80;99.90;;;;;;5075402;28;20193;-70
2023/08/11 05:55:53;;;;;;;0.40;0.40;;;14.00;99.90;;;;;;5075646;28;20197;-70
2023/08/11 05:58:19;;;;;;;0.40;0.40;;;14.00;99.90;;;;;;5075176;28;20188;-71
2023/08/11 06:00:45;;;;;;;0.40;0.40;;;14.10;99.90;;;;;;5075075;28;20271;-69
2023/08/11 06:03:10;;;;;;;0.40;0.40;;;14.20;99.90;;;;;;5075337;28;20193;-69
2023/08/11 06:05:36;;;;;;;0.40;0.40;;;14.40;99.90;;;;;;5074452;28;20220;-70
2023/08/11 06:08:03;;;;;;;0.43;0.43;;;14.40;99.90;;;;;;5075439;28;20193;-69
2023/08/11 06:10:30;;;;;;;0.38;0.38;;;14.50;99.90;;;;;;5075448;28;20678;-70
2023/08/11 06:13:02;;;;;;;0.40;0.40;;;14.60;99.90;;;;;;5075106;28;20247;-71
2023/08/11 06:15:27;;;;;;;0.82;0.57;;;14.70;99.90;;;;;;5074861;28;20197;-72
2023/08/11 06:17:53;;;;;;;0.40;0.40;;;14.70;99.90;;;;;;5075506;28;20193;-72
2023/08/11 06:20:19;;;;;;;0.32;0.32;;;14.70;99.90;;;;;;5074983;28;20189;-72
2023/08/11 06:22:48;;;;;;;0.60;0.60;;;14.80;99.90;;;;;;5074134;28;20193;-68
2023/08/11 06:25:15;;;;;;;0.75;0.50;;;14.80;99.90;;;;;;5075605;28;20644;-68
2023/08/11 06:27:44;;;;;;;0.50;0.50;;;14.90;99.90;;;;;;5074353;28;20197;-70
2023/08/11 06:30:10;;;;;;;0.40;0.40;;;14.90;99.90;;;;;;5074697;28;20204;-69
2023/08/11 06:32:37;;;;;;;0.40;0.40;;;15.00;99.90;;;;;;5074502;28;20635;-69
2023/08/11 06:35:04;;;;;;;0.47;0.47;;;15.00;99.90;;;;;;5073155;28;20196;-69
2023/08/11 06:37:30;;;;;;;0.40;0.40;;;15.00;99.90;;;;;;5074166;28;20197;-69
2023/08/11 06:39:58;;;;;;;0.60;0.60;;;14.90;99.90;;;;;;5074583;28;20576;-69
2023/08/11 06:42:24;;;;;;;0.40;0.40;;;14.90;99.90;;;;;;5074484;28;20654;-69
2023/08/11 06:44:50;;;;;;;0.60;0.60;;;14.90;99.90;;;;;;5074433;28;20209;-69
2023/08/11 06:47:16;;;;;;;0.47;0.47;;;14.80;99.90;;;;;;5074130;28;20267;-69
2023/08/11 06:49:42;;;;;;;0.40;0.40;;;14.90;99.90;;;;;;5074242;28;20189;-68
2023/08/11 06:52:08;;;;;;;0.50;0.50;;;14.90;99.90;;;;;;5074306;28;20193;-69
2023/08/11 06:54:34;;;;;;;0.77;0.75;;;14.90;99.90;;;;;;5056163;28;20203;-69
2023/08/11 06:57:04;;;;;;;0.30;0.30;;;15.00;99.90;;;;;;5074557;28;20271;-69
2023/08/11 06:59:30;;;;;;;0.60;0.60;;;15.10;99.90;;;;;;5074647;28;20519;-72
2023/08/11 07:01:56;;;;;;;0.70;0.70;;;15.10;99.90;;;;;;5074099;28;20227;-72
2023/08/11 07:04:22;;;;;;;0.35;0.35;;;15.20;99.90;;;;;;5073654;28;20235;-72
2023/08/11 07:06:48;;;;;;;3.20;1.10;;;15.30;99.90;;;;;;5074101;28;20209;-72
2023/08/11 07:09:13;;;;;;;0.65;0.65;;;15.50;99.90;;;;;;5072691;28;20189;-72
2023/08/11 07:11:39;;;;;;;0.52;0.52;;;15.60;99.90;;;;;;5073724;28;20275;-72
2023/08/11 07:14:05;;;;;;;0.95;0.82;;;15.80;99.90;;;;;;5073738;28;20215;-72
2023/08/11 07:16:31;;;;;;;4.60;1.15;;;15.90;99.90;;;;;;5073463;28;20571;-72
2023/08/11 07:18:57;;;;;;;0.30;0.30;;;15.90;99.90;;;;;;5073895;28;20648;-72
2023/08/11 07:21:23;;;;;;;0.40;0.40;;;15.90;99.90;;;;;;5073994;28;20219;-72
2023/08/11 07:23:48;;;;;;;0.30;0.30;;;16.00;99.90;;;;;;5074040;28;20664;-72
2023/08/11 07:26:14;;;;;;;0.40;0.40;;;16.20;99.90;;;;;;5071965;28;20672;-72
2023/08/11 07:28:40;;;;;;;0.40;0.40;;;16.40;99.90;;;;;;5073294;28;20196;-72
2023/08/11 07:31:06;;;;;;;0.30;0.30;;;16.50;99.90;;;;;;5073558;28;20215;-72
2023/08/11 07:33:32;;;;;;;0.40;0.40;;;16.60;99.90;;;;;;5073379;28;20246;-72
2023/08/11 07:35:57;;;;;;;0.30;0.30;;;16.70;99.90;;;;;;5073372;28;20624;-72
2023/08/11 07:38:23;;;;;;;0.30;0.30;;;16.90;99.90;;;;;;5073404;28;20203;-72
2023/08/11 07:40:49;;;;;;;0.47;0.47;;;17.00;99.90;;;;;;5073456;28;20200;-72
2023/08/11 07:43:15;;;;;;;0.30;0.30;;;17.10;99.90;;;;;;5073557;28;20200;-72
2023/08/11 07:45:40;;;;;;;0.30;0.30;;;17.20;99.90;;;;;;5072272;28;20197;-72
2023/08/11 07:48:06;;;;;;;0.30;0.30;;;17.20;99.90;;;;;;5073356;28;20189;-72
2023/08/11 07:50:36;;;;;;;1.30;0.73;;;17.30;99.90;;;;;;5055405;28;20208;-72
2023/08/11 07:53:02;;;;;;;0.50;0.50;;;17.30;99.90;;;;;;5073292;28;20201;-72
2023/08/11 07:55:28;;;;;;;0.25;0.25;;;17.30;99.90;;;;;;5072389;28;20199;-72
2023/08/11 07:57:53;;;;;;;0.35;0.35;;;17.50;99.90;;;;;;5073064;28;20197;-71
2023/08/11 08:00:24;;;;;;;0.30;0.30;;;17.80;99.90;;;;;;5073315;28;20655;-71
2023/08/11 08:02:51;;;;;;;0.30;0.30;;;17.80;99.90;;;;;;5072981;28;20200;-71
2023/08/11 08:05:17;;;;;;;0.30;0.30;;;18.20;99.90;;;;;;5040166;28;20221;-72
2023/08/11 08:07:43;;;;;;;0.30;0.30;;;18.50;99.90;;;;;;5033170;28;20214;-71
2023/08/11 08:10:10;;;;;;;0.43;0.25;;;19.00;99.90;;;;;;5031905;28;20197;-72
2023/08/11 08:12:40;;;;;;;0.22;0.22;;;19.40;99.90;;;;;;5033068;28;20671;-72
2023/08/11 08:15:07;;;;;;;0.38;0.38;;;19.20;99.90;;;;;;5033114;28;20198;-72
2023/08/11 08:17:34;;;;;;;0.20;0.20;;;19.50;99.90;;;;;;5032716;28;20255;-72
2023/08/11 08:20:00;;;;;;;16.75;0.57;;;19.70;99.90;;;;;;5033045;28;20274;-72
2023/08/11 08:22:25;;;;;;;0.20;0.20;;;20.00;99.90;;;;;;5032630;28;20186;-72
2023/08/11 08:24:52;;;;;;;0.32;0.30;;;20.00;99.90;;;;;;5033193;28;20209;-72
2023/08/11 08:27:24;;;;;;;0.20;0.20;;;20.30;99.90;;;;;;5032646;28;20411;-70
2023/08/11 08:29:51;;;;;;;9.30;0.35;;;20.10;99.90;;;;;;5033133;28;20450;-71
2023/08/11 08:32:17;;;;;;;0.20;0.20;;;20.10;99.90;;;;;;5052123;28;20690;-70
2023/08/11 08:34:43;;;;;;;0.20;0.20;;;20.10;99.90;;;;;;5043986;28;20191;-70
2023/08/11 08:37:09;;;;;;;1.27;0.73;;;20.70;99.90;;;;;;5032209;28;20205;-70
2023/08/11 08:39:35;;;;;;;0.20;0.20;;;21.10;99.90;;;;;;5032454;28;20277;-69
2023/08/11 08:42:03;;;;;;;7.22;0.73;;;21.10;99.90;;;;;;5032935;28;20198;-70
2023/08/11 08:44:30;;;;;;;0.22;0.22;;;21.20;99.90;;;;;;5032589;28;20603;-71
2023/08/11 08:46:58;;;;;;;0.30;0.30;;;20.90;99.90;;;;;;5033059;28;20555;-71
2023/08/11 08:49:26;;;;;;;0.63;0.63;;;21.00;99.90;;;;;;5032665;28;20198;-72
2023/08/11 08:51:53;;;;;;;0.20;0.20;;;21.30;99.90;;;;;;5032769;28;20221;-69
2023/08/11 08:54:19;;;;;;;0.20;0.20;;;21.90;99.90;;;;;;5032565;28;20191;-68
2023/08/11 08:56:45;;;;;;;0.20;0.20;;;22.70;99.90;;;;;;5032885;28;20201;-69
2023/08/11 08:59:11;;;;;;;0.20;0.20;;;23.10;99.90;;;;;;5037330;28;20527;-69
2023/08/11 09:01:38;;;;;;;0.20;0.20;;;23.20;99.90;;;;;;5036492;28;20268;-70
2023/08/11 09:04:08;;;;;;;3.20;0.52;;;23.70;99.90;;;;;;5043190;28;20345;-71
2023/08/11 09:06:34;;;;;;;0.28;0.28;;;23.40;99.90;;;;;;5076269;28;20280;-71
2023/08/11 09:09:00;;;;;;;0.20;0.20;;;22.40;99.90;;;;;;5076505;28;20195;-71
2023/08/11 09:11:27;;;;;;;0.20;0.20;;;21.80;99.90;;;;;;5076210;28;20189;-70
2023/08/11 09:13:53;;;;;;;0.13;0.13;;;21.20;99.90;;;;;;5076142;28;20216;-71
2023/08/11 09:16:23;;;;;;;0.20;0.20;;;21.00;99.90;;;;;;5076465;28;20205;-71
2023/08/11 09:18:49;;;;;;;0.20;0.20;;;21.00;99.90;;;;;;5076340;28;20203;-71
2023/08/11 09:21:16;;;;;;;0.10;0.10;;;21.20;99.90;;;;;;5075518;28;20685;-71
2023/08/11 09:23:43;;;;;;;0.20;0.20;;;21.50;99.90;;;;;;5076253;28;20323;-71
2023/08/11 09:26:09;;;;;;;0.20;0.20;;;21.80;99.90;;;;;;5075518;28;20250;-70
2023/08/11 09:28:35;;;;;;;0.75;0.75;;;21.60;99.90;;;;;;5075499;28;20189;-71
2023/08/11 09:31:01;;;;;;;0.38;0.20;;;21.60;99.90;;;;;;5075848;28;20590;-71
2023/08/11 09:33:30;;;;;;;1.92;0.40;;;22.00;99.90;;;;;;5075625;28;20185;-71
2023/08/11 09:35:56;;;;;;;0.20;0.20;;;22.40;99.90;;;;;;5075049;28;20283;-71
2023/08/11 09:38:25;;;;;;;0.25;0.25;;;22.00;99.90;;;;;;5075104;28;20639;-69
2023/08/11 09:40:51;;;;;;;0.20;0.20;;;21.40;99.90;;;;;;5075769;28;20682;-69
2023/08/11 09:43:17;;;;;;;0.20;0.20;;;21.40;99.90;;;;;;5075927;28;20197;-69
2023/08/11 09:45:42;;;;;;;0.85;0.30;;;22.00;99.90;;;;;;5075217;28;20229;-69
2023/08/11 09:48:08;;;;;;;0.20;0.20;;;22.00;99.90;;;;;;5075331;28;20216;-70
2023/08/11 09:50:35;;;;;;;0.20;0.20;;;22.00;99.90;;;;;;5074736;28;20325;-70
2023/08/11 09:53:04;;;;;;;0.28;0.28;;;21.90;99.90;;;;;;5074662;28;20197;-70
2023/08/11 09:55:33;;;;;;;0.47;0.45;;;21.80;99.90;;;;;;5075500;28;20276;-70
2023/08/11 09:58:01;;;;;;;1.52;0.43;;;21.90;99.90;;;;;;5075291;28;20189;-70
2023/08/11 10:00:30;;;;;;;0.30;0.30;;;22.20;99.90;;;;;;5075258;28;20538;-70
2023/08/11 10:03:05;;;;;;;0.30;0.30;;;22.50;99.90;;;;;;5075711;28;20181;-70
2023/08/11 10:05:35;;;;;;;0.20;0.20;;;22.40;99.90;;;;;;5074655;28;20238;-70
2023/08/11 10:08:04;;;;;;;0.20;0.20;;;22.30;99.90;;;;;;5074715;28;20195;-70
2023/08/11 10:10:31;;;;;;;0.20;0.20;;;22.10;99.90;;;;;;5073558;28;20675;-69
2023/08/11 10:13:06;;;;;;;0.20;0.20;;;22.00;99.90;;;;;;5075212;28;20272;-69
2023/08/11 10:15:33;;;;;;;0.20;0.20;;;21.70;99.90;;;;;;5074893;28;20242;-69
2023/08/11 10:18:01;;;;;;;1.05;0.55;;;21.70;99.90;;;;;;5074966;28;20247;-71
2023/08/11 10:20:29;;;;;;;0.20;0.20;;;21.90;99.90;;;;;;5074942;28;20267;-69
2023/08/11 10:22:56;;;;;;;0.55;0.45;;;21.60;99.90;;;;;;5074893;28;20219;-69
2023/08/11 10:25:22;;;;;;;0.30;0.30;;;21.80;99.90;;;;;;5073440;28;20242;-69
2023/08/11 10:27:48;;;;;;;0.17;0.17;;;21.70;99.90;;;;;;5074662;28;20262;-70
2023/08/11 10:30:17;;;;;;;0.30;0.30;;;22.00;99.90;;;;;;5073652;28;20211;-70
2023/08/11 10:32:43;;;;;;;0.28;0.28;;;22.40;99.90;;;;;;5056591;28;20189;-70
2023/08/11 10:35:26;;;;;;;0.30;0.30;;;22.70;99.90;;;;;;5074384;28;20220;-70
2023/08/11 10:37:59;;;;;;;0.10;0.10;;;23.20;99.90;;;;;;5074849;28;20714;-71
2023/08/11 10:40:34;;;;;;;0.40;0.40;;;24.00;99.90;;;;;;5074769;28;20267;-70
2023/08/11 10:43:02;;;;;;;0.00;0.00;;;24.20;99.90;;;;;;5073274;28;20235;-71
2023/08/11 10:45:31;;;;;;;0.17;0.17;;;24.30;99.90;;;;;;5074517;28;20203;-71
2023/08/11 10:47:58;;;;;;;0.00;0.00;;;24.90;99.90;;;;;;5074541;28;20201;-71
2023/08/11 10:50:26;;;;;;;0.00;0.00;;;25.20;99.90;;;;;;5074415;28;20663;-71
2023/08/11 10:53:06;;;;;;;1.35;0.47;;;25.10;99.90;;;;;;5073602;28;20200;-70
2023/08/11 10:55:36;;;;;;;0.00;0.00;;;24.60;99.90;;;;;;5056256;28;20189;-71
2023/08/11 10:58:17;;;;;;;0.10;0.10;;;24.60;99.90;;;;;;5074371;28;20663;-71
2023/08/11 11:00:43;;;;;;;0.00;0.00;;;24.40;99.90;;;;;;5074156;28;20185;-70
2023/08/11 11:03:09;;;;;;;0.10;0.10;;;23.80;99.90;;;;;;5073558;28;20192;-69
2023/08/11 11:05:35;;;;;;;0.22;0.22;;;24.30;99.90;;;;;;5073542;28;20632;-70
2023/08/11 11:08:01;;;;;;;0.10;0.10;;;24.40;99.90;;;;;;5056440;28;20192;-70
2023/08/11 11:10:28;;;;;;;0.20;0.20;;;24.30;99.90;;;;;;5074087;28;20193;-70
2023/08/11 11:12:55;;;;;;;0.08;0.08;;;24.70;99.90;;;;;;5073669;28;20648;-70
2023/08/11 11:15:21;;;;;;;0.22;0.10;;;25.10;99.90;;;;;;5073719;28;20196;-70
2023/08/11 11:17:47;;;;;;;0.10;0.10;;;24.90;99.90;;;;;;5074212;28;20559;-70
2023/08/11 11:20:14;;;;;;;0.10;0.10;;;24.40;99.90;;;;;;5055616;28;20205;-70
2023/08/11 11:22:47;;;;;;;0.00;0.00;;;23.80;99.90;;;;;;5073991;28;20192;-70
2023/08/11 11:25:13;;;;;;;0.20;0.17;;;23.40;99.90;;;;;;5055951;28;20268;-70
2023/08/11 11:27:43;;;;;;;0.10;0.10;;;23.20;99.90;;;;;;5073267;28;20212;-70
2023/08/11 11:30:10;;;;;;;0.55;0.40;;;23.10;99.90;;;;;;5073640;28;20671;-70
2023/08/11 11:32:37;;;;;;;0.10;0.10;;;23.30;99.90;;;;;;5073400;28;20188;-70
2023/08/11 11:35:05;;;;;;;0.15;0.15;;;23.00;99.90;;;;;;5080400;28;20196;-70
2023/08/11 11:37:33;;;;;;;0.00;0.00;;;22.40;99.90;;;;;;5073489;28;20716;-71
2023/08/11 11:40:00;;;;;;;1.10;0.45;;;22.10;99.90;;;;;;5074260;28;20203;-71
2023/08/11 11:42:29;;;;;;;0.15;0.15;;;22.00;99.90;;;;;;5073573;28;20189;-71
2023/08/11 11:44:56;;;;;;;0.10;0.10;;;22.20;99.90;;;;;;5056021;28;20570;-70
2023/08/11 11:47:22;;;;;;;0.00;0.00;;;22.70;99.90;;;;;;5073496;28;20217;-71
2023/08/11 11:49:58;;;;;;;0.20;0.17;;;23.10;99.90;;;;;;5073122;28;20193;-74
2023/08/11 11:52:27;;;;;;;1.60;0.25;;;23.80;99.90;;;;;;5073472;28;20228;-73
2023/08/11 11:54:54;;;;;;;2.30;0.55;;;23.80;99.90;;;;;;5073426;28;20280;-73
2023/08/11 11:57:21;;;;;;;0.00;0.00;;;23.30;99.90;;;;;;5073144;28;20219;-73
2023/08/11 11:59:47;;;;;;;0.00;0.00;;;22.90;99.90;;;;;;5073454;28;20188;-73
2023/08/11 12:02:14;;;;;;;0.00;0.00;;;23.10;99.90;;;;;;5071210;28;20208;-74
2023/08/11 12:04:45;;;;;;;0.00;0.00;;;23.80;99.90;;;;;;5072339;28;20303;-73
2023/08/11 12:07:29;;;;;;;0.08;0.08;;;24.40;99.90;;;;;;5072589;28;20212;-73
2023/08/11 12:09:55;;;;;;;0.10;0.10;;;25.30;99.90;;;;;;5072879;28;20242;-73
2023/08/11 12:12:24;;;;;;;0.00;0.00;;;25.30;99.90;;;;;;5072868;28;20688;-73
2023/08/11 12:14:50;;;;;;;0.00;0.00;;;25.10;99.90;;;;;;5072861;28;20196;-73
2023/08/11 12:17:16;;;;;;;0.00;0.00;;;24.90;99.90;;;;;;5072950;28;20196;-75
2023/08/11 12:19:43;;;;;;;0.05;0.05;;;24.90;99.90;;;;;;5073097;28;20197;-75
2023/08/11 12:22:09;;;;;;;0.00;0.00;;;25.00;99.90;;;;;;5073382;28;20192;-75
2023/08/11 12:24:35;;;;;;;0.00;0.00;;;24.70;99.90;;;;;;5072623;28;20188;-73
2023/08/11 12:27:00;;;;;;;0.17;0.17;;;24.40;99.90;;;;;;5072500;28;20205;-73
2023/08/11 12:29:26;;;;;;;0.00;0.00;;;24.30;99.90;;;;;;5073457;28;20196;-69
2023/08/11 12:31:52;;;;;;;0.03;0.03;;;24.60;99.90;;;;;;5054548;28;20197;-68
2023/08/11 12:34:17;;;;;;;0.00;0.00;;;25.00;99.90;;;;;;5072673;28;20220;-72
2023/08/11 12:36:43;;;;;;;0.00;0.00;;;25.20;99.90;;;;;;5054985;28;20200;-72
2023/08/11 12:39:09;;;;;;;0.00;0.00;;;25.40;99.90;;;;;;5073093;28;20670;-70
2023/08/11 12:41:35;;;;;;;0.10;0.10;;;25.10;99.90;;;;;;5072637;28;20647;-74
2023/08/11 12:44:01;;;;;;;0.03;0.03;;;25.00;99.90;;;;;;5073317;28;20250;-69
2023/08/11 12:46:29;;;;;;;0.28;0.25;;;25.10;99.90;;;;;;5072288;28;20212;-70